Christy T — WDE7137 — position and weather

sailwx.info

Track history (hours):
 
Tides and Currents Weather Stations Pressure Air Temp Water Temp Dewpoint Dewpoint Depression Visibility Wind Speed Wind Dir Waves Ship Positions

Christy T

Owner: Terral RiverService, Inc., Lake Providence, LA. More information available from US FCC via Universal Licensing System and Coast Guard Vessel Documentation Center.

Last reported at 2015-May-14 23:18 UTC. Time now 2015-Jul-01 12:52 UTC.
Position N 30°42' W 091°21'.
Warning: this ship's position is 47 days out of date.

Length 30 m.

Type: Towing. MMSI: 367389450.

Date/timePositionNaut miles runAvg speedWind from/ knotsBaromVisibWave heightAir tempDewpointWater temp
2015-May-14 23:18N 30°42' W 091°21'5 4.5
2015-May-14 22:13N 30°38' W 091°18'3 4.7
2015-May-14 21:32N 30°35' W 091°19'2 1.8
2015-May-14 20:34N 30°34' W 091°17'3 3.0
2015-May-14 19:33N 30°32' W 091°15'1 1.2
2015-May-14 18:33N 30°31' W 091°14'3 3.1
2015-May-14 17:33N 30°29' W 091°12'5 4.5
2015-May-14 16:33N 30°24' W 091°13'4 3.7
2015-May-14 15:31N 30°20' W 091°14'4 4.4
2015-May-14 14:33N 30°20' W 091°09'4 4.0
2015-May-14 13:32N 30°18' W 091°13'6 0.2
2015-May-13 06:34N 30°24' W 091°12'7 6.6
2015-May-13 05:34N 30°31' W 091°15'5 4.7
2015-May-13 04:34N 30°34' W 091°18'  
2015-May-07 17:27N 30°40' W 091°20'3 3.6
2015-May-07 16:33N 30°38' W 091°18'4 2.7
2015-May-07 15:10N 30°34' W 091°18'2 3.7
2015-May-07 14:33N 30°34' W 091°16'3 2.5
2015-May-07 13:33N 30°32' W 091°16'2 1.5
2015-May-07 12:33N 30°30' W 091°16'3 3.0
2015-May-07 11:32N 30°31' W 091°12'3 3.4
2015-May-07 10:33N 30°28' W 091°12'4 3.5
2015-May-07 09:32N 30°24' W 091°12'1 0.9
2015-May-07 08:31N 30°24' W 091°13'1 0.6
2015-May-07 07:33N 30°23' W 091°13'3 2.0
2015-May-07 06:07N 30°21' W 091°11'3 3.6
2015-May-07 05:22N 30°20' W 091°09'4 1.3
2015-May-07 02:30N 30°16' W 091°07'11 0.3
2015-May-05 17:34N 30°26' W 091°12'5 5.5
2015-May-05 16:33N 30°30' W 091°16'6 5.8
2015-May-05 15:33N 30°35' W 091°19'  
Track history (hours):
 
Tides and Currents Weather Stations Pressure Air Temp Water Temp Dewpoint Dewpoint Depression Visibility Wind Speed Wind Dir Waves Ship Positions

Christy T

Owner: Terral RiverService, Inc., Lake Providence, LA. More information available from US FCC via Universal Licensing System and Coast Guard Vessel Documentation Center.

Last reported at 2015-May-14 23:18 UTC. Time now 2015-Jul-01 12:52 UTC.
Position N 30°42' W 091°21'.
Warning: this ship's position is 47 days out of date.

Length 30 m.

Type: Towing. MMSI: 367389450.

Date/timePositionNaut miles runAvg speedWind from/ knotsBaromVisibWave heightAir tempDewpointWater temp
2015-May-14 23:18N 30°42' W 091°21'5 4.5
2015-May-14 22:13N 30°38' W 091°18'3 4.7
2015-May-14 21:32N 30°35' W 091°19'2 1.8
2015-May-14 20:34N 30°34' W 091°17'3 3.0
2015-May-14 19:33N 30°32' W 091°15'1 1.2
2015-May-14 18:33N 30°31' W 091°14'3 3.1
2015-May-14 17:33N 30°29' W 091°12'5 4.5
2015-May-14 16:33N 30°24' W 091°13'4 3.7
2015-May-14 15:31N 30°20' W 091°14'4 4.4
2015-May-14 14:33N 30°20' W 091°09'4 4.0
2015-May-14 13:32N 30°18' W 091°13'6 0.2
2015-May-13 06:34N 30°24' W 091°12'7 6.6
2015-May-13 05:34N 30°31' W 091°15'5 4.7
2015-May-13 04:34N 30°34' W 091°18'  
2015-May-07 17:27N 30°40' W 091°20'3 3.6
2015-May-07 16:33N 30°38' W 091°18'4 2.7
2015-May-07 15:10N 30°34' W 091°18'2 3.7
2015-May-07 14:33N 30°34' W 091°16'3 2.5
2015-May-07 13:33N 30°32' W 091°16'2 1.5
2015-May-07 12:33N 30°30' W 091°16'3 3.0
2015-May-07 11:32N 30°31' W 091°12'3 3.4
2015-May-07 10:33N 30°28' W 091°12'4 3.5
2015-May-07 09:32N 30°24' W 091°12'1 0.9
2015-May-07 08:31N 30°24' W 091°13'1 0.6
2015-May-07 07:33N 30°23' W 091°13'3 2.0
2015-May-07 06:07N 30°21' W 091°11'3 3.6
2015-May-07 05:22N 30°20' W 091°09'4 1.3
2015-May-07 02:30N 30°16' W 091°07'11 0.3
2015-May-05 17:34N 30°26' W 091°12'5 5.5
2015-May-05 16:33N 30°30' W 091°16'6 5.8
2015-May-05 15:33N 30°35' W 091°19'  

Dump ship's entire track history